Latest Coastal Weather Observations for Melbourne (Olympic Park)

IDV60701

Issued at 6:21 pm EDT Sunday 26 March 2017 (issued every 10 minutes, with the page automatically refreshed every 10 minutes)

About coastal observations | Map of coastal stations | Coastal observations for VIC | Marine services | Other Formats
Station Details ID: 086338 Name: MELBOURNE (OLYMPIC PARK) Lat: -37.83 Lon: 144.98 Height: 7.53 m
Data from the previous 72 hours. | See also: Recent months at Melbourne (Olympic Park)
Date/Time
EDT
Temp
°C
Wind Pressure Rain since
9am
mm
Weather Cloud Vis
km
Sea
Height
m
Swell
Dir  Spd
kts
Gust
kts
hPa Trend Height
m
Period
s
Dir
26/06:00pm 23.4 SW 6 11 1011.4 - 0.0 - - 10 - - - -
26/05:30pm 23.7 SSW 7 11 1011.6 - 0.0 - - 10 - - - -
26/05:00pm 23.7 SSW 7 10 1011.5 - 0.0 - - 10 - - - -
26/04:30pm 24.2 SSW 8 11 1011.6 - 0.0 - - 10 - - - -
26/04:00pm 24.7 SSW 6 9 1011.5 - 0.0 - - 10 - - - -
26/03:30pm 24.5 SSW 4 8 1012.0 - 0.0 - - 10 - - - -
26/03:00pm 23.8 SSW 6 9 1012.4 - 0.0 - - 10 - - - -
26/02:30pm 23.9 SSW 6 9 1012.7 - 0.0 - - 10 - - - -
26/02:00pm 23.1 SW 6 9 1013.3 - 0.0 - - 10 - - - -
26/01:30pm 23.8 SSW 5 9 1013.5 - 0.0 - - 10 - - - -
26/01:00pm 23.1 SSW 5 7 1014.1 - 0.0 - - 10 - - - -
26/12:30pm 23.8 SSW 3 5 1014.6 - 0.0 - - 10 - - - -
26/12:00pm 22.9 SSE 3 6 1015.1 - 0.0 - - 10 - - - -
26/11:30am 22.5 ESE 4 5 1015.5 - 0.0 - - 10 - - - -
26/11:00am 21.5 SE 2 5 1015.8 - 0.0 - - 10 - - - -
26/10:30am 21.4 S 3 6 1015.7 - 0.0 - - 10 - - - -
26/10:00am 20.8 S 4 5 1015.6 - 0.0 - - 10 - - - -
26/09:30am 20.3 SSE 5 7 1015.4 - 0.0 - - 10 - - - -
26/09:00am 20.1 SE 4 6 1014.9 - 0.0 - - 10 - - - -
26/08:30am 19.8 SE 3 7 1015.0 - 0.0 - - 10 - - - -
26/08:00am 19.4 CALM 0 2 1014.8 - 0.0 - - 10 - - - -
26/07:30am 19.6 CALM 0 3 1014.5 - 0.0 - - 10 - - - -
26/07:00am 19.5 SSE 2 6 1014.1 - 0.0 - - 10 - - - -
26/06:30am 19.6 SSE 3 6 1014.3 - 0.0 - - 10 - - - -
26/06:00am 19.6 S 3 6 1014.1 - 0.0 - - 10 - - - -
26/05:30am 19.6 SSE 3 4 1014.0 - 0.0 - - 10 - - - -
26/05:00am 19.6 S 2 5 1013.7 - 0.0 - - 10 - - - -
26/04:30am 19.7 SSW 2 6 1013.8 - 0.0 - - 10 - - - -
26/04:00am 19.8 S 3 6 1014.0 - 0.0 - - 10 - - - -
26/03:30am 19.8 SW 5 7 1014.0 - 0.0 - - 10 - - - -
26/03:00am 19.9 SSW 4 8 1014.0 - 0.0 - - 10 - - - -
26/02:30am 20.0 SSW 4 8 1014.5 - 0.0 - - 10 - - - -
26/02:00am 19.9 SSW 6 10 1014.4 - 0.0 - - 10 - - - -
26/01:30am 19.9 SSW 2 5 1014.5 - 0.0 - - 10 - - - -
26/01:00am 19.9 SSW 3 6 1014.4 - 0.0 - - 10 - - - -
26/12:30am 20.0 SW 3 7 1014.5 - 0.0 - - 10 - - - -
26/12:00am 20.1 SW 5 10 1014.6 - 0.0 - - 10 - - - -
 
Date/Time
EDT
Temp
°C
Wind Pressure Rain since
9am
mm
Weather Cloud Vis
km
Sea
Height
m
Swell
Dir  Spd
kts
Gust
kts
hPa Trend Height
m
Period
s
Dir
25/11:30pm 20.4 SSW 4 8 1014.3 - 0.0 - - 10 - - - -
25/11:00pm 20.7 SSW 6 11 1014.4 - 0.0 - - 10 - - - -
25/10:30pm 21.1 SSW 7 14 1014.2 - 0.0 - - 10 - - - -
25/10:00pm 21.7 SSW 6 10 1014.0 - 0.0 - - 10 - - - -
25/09:30pm 23.2 SSE 4 6 1013.4 - 0.0 - - 10 - - - -
25/09:00pm 23.1 CALM 0 0 1012.7 - 0.0 - - 10 - - - -
25/08:30pm 24.0 NE 2 4 1012.0 - 0.0 - - 10 - - - -
25/08:00pm 23.8 N 3 5 1011.6 - 0.0 - - 10 - - - -
25/07:30pm 24.1 NNE 1 4 1011.0 - 0.0 - - 10 - - - -
25/07:00pm 24.2 NNW 4 7 1010.7 - 0.0 - - 10 - - - -
25/06:30pm 26.7 N 4 10 1010.6 - 0.0 - - 10 - - - -
25/06:00pm 27.2 NNE 6 10 1010.0 - 0.0 - - 10 - - - -
25/05:30pm 27.7 NE 6 11 1009.8 - 0.0 - - 10 - - - -
25/05:00pm 28.2 NNE 5 8 1009.7 - 0.0 - - 10 - - - -
25/04:30pm 28.6 NE 7 11 1009.8 - 0.0 - - 10 - - - -
25/04:00pm 28.2 NE 5 9 1009.8 - 0.0 - - 10 - - - -
25/03:30pm 28.1 NNE 8 11 1009.9 - 0.0 - - 10 - - - -
25/03:00pm 29.2 N 7 10 1010.2 - 0.0 - - 10 - - - -
25/02:30pm 28.3 N 6 10 1010.4 - 0.0 - - 10 - - - -
25/02:00pm 28.3 N 7 12 1010.8 - 0.0 - - 10 - - - -
25/01:30pm 27.9 NNE 8 13 1011.2 - 0.0 - - 10 - - - -
25/01:00pm 27.1 N 9 13 1011.6 - 0.0 - - 10 - - - -
25/12:30pm 26.9 N 8 13 1012.1 - 0.0 - - 10 - - - -
25/12:00pm 25.3 N 11 17 1012.5 - 0.0 - - 10 - - - -
25/11:30am 25.3 N 11 16 1012.9 - 0.0 - - 10 - - - -
25/11:00am 24.1 N 10 16 1013.0 - 0.0 - - 10 - - - -
25/10:30am 22.9 N 11 16 1013.0 - 0.0 - - 10 - - - -
25/10:00am 22.3 N 11 17 1012.9 - 0.0 - - 10 - - - -
25/09:30am 22.1 N 12 18 1012.8 - 0.0 - - 10 - - - -
25/09:00am 21.9 N 11 17 1012.5 - 0.0 - - 10 - - - -
25/08:30am 21.7 N 9 14 1012.6 - 0.0 - - 10 - - - -
25/08:00am 21.6 N 8 13 1012.3 - 0.0 - - 10 - - - -
25/07:30am 21.0 N 5 7 1012.1 - 0.0 - - 10 - - - -
25/07:00am 19.8 N 2 4 1012.0 - 0.0 - - 10 - - - -
25/06:30am 19.2 NNE 5 7 1011.8 - 0.0 - - 10 - - - -
25/06:00am 19.0 NE 4 6 1011.8 - 0.0 - - 10 - - - -
25/05:30am 18.7 NNE 3 5 1012.1 - 0.0 - - 10 - - - -
25/05:00am 18.6 NNE 5 7 1011.8 - 0.0 - - 10 - - - -
25/04:30am 18.7 NNE 5 6 1011.9 - 0.0 - - 10 - - - -
25/04:00am 18.7 NNE 7 9 1011.8 - 0.0 - - 10 - - - -
25/03:30am 18.7 NNE 5 9 1012.6 - 0.0 - - 10 - - - -
25/03:00am 19.0 NNE 5 7 1013.4 - 0.0 - - 10 - - - -
25/02:30am 18.7 CALM 0 0 1014.2 - 0.0 - - 10 - - - -
25/02:00am 19.0 CALM 0 0 1014.3 - 0.0 - - 10 - - - -
25/01:30am 18.6 CALM 0 0 1014.7 - 0.0 - - 10 - - - -
25/01:00am 19.3 CALM 0 0 1014.5 - 0.0 - - 10 - - - -
25/12:30am 19.8 NNE 3 6 1014.2 - 0.0 - - 10 - - - -
25/12:00am 18.6 CALM 0 0 1014.6 - 0.0 - - 10 - - - -
 
Date/Time
EDT
Temp
°C
Wind Pressure Rain since
9am
mm
Weather Cloud Vis
km
Sea
Height
m
Swell
Dir  Spd
kts
Gust
kts
hPa Trend Height
m
Period
s
Dir
24/11:30pm 18.5 CALM 0 0 1015.0 - 0.0 - - 10 - - - -
24/11:00pm 18.5 CALM 0 3 1015.0 - 0.0 - - 10 - - - -
24/10:30pm 19.1 CALM 0 0 1015.4 - 0.0 - - 10 - - - -
24/10:00pm 19.9 CALM 0 0 1015.2 - 0.0 - - 10 - - - -
24/09:30pm 20.7 SE 2 5 1015.2 - 0.0 - - 10 - - - -
24/09:00pm 20.9 SSW 1 4 1015.5 - 0.0 - - 10 - - - -
24/08:30pm 21.7 SSE 2 5 1015.0 - 0.0 - - 10 - - - -
24/08:00pm 22.4 SE 4 7 1014.7 - 0.0 - - 10 - - - -
24/07:30pm 22.5 SSE 3 6 1015.0 - 0.0 - - 10 - - - -
24/07:00pm 22.5 CALM 0 0 1014.8 - 0.0 - - 10 - - - -
24/06:30pm 23.0 CALM 0 3 1014.8 - 0.0 - - 10 - - - -
24/06:00pm 23.0 SSW 3 6 1015.2 - 0.0 - - 10 - - - -
24/05:30pm 22.9 S 4 8 1014.9 - 0.0 - - 10 - - - -
24/05:00pm 23.5 SSW 5 9 1014.9 - 0.0 - - 10 - - - -
24/04:30pm 23.2 SSW 4 7 1015.0 - 0.0 - - 10 - - - -
24/04:00pm 24.1 SSW 3 5 1015.1 - 0.0 - - 10 - - - -
24/03:30pm 23.9 S 4 6 1015.5 - 0.0 - - 10 - - - -
24/03:00pm 22.9 SSW 5 9 1016.2 - 0.0 - - 10 - - - -
24/02:30pm 22.0 SSW 6 8 1016.8 - 0.0 - - 10 - - - -
24/02:00pm 24.1 SE 2 6 1016.9 - 0.0 - - 10 - - - -
24/01:30pm 23.3 WNW 3 8 1017.7 - 0.0 - - 10 - - - -
24/01:00pm 22.6 NE 4 8 1018.3 - 0.0 - - 10 - - - -
24/12:30pm 21.9 E 3 7 1018.7 - 0.0 - - 10 - - - -
24/12:00pm 21.0 E 3 6 1019.3 - 0.0 - - 10 - - - -
24/11:30am 20.7 ENE 2 5 1019.6 - 0.0 - - 10 - - - -
24/11:00am 19.5 ENE 5 8 1019.8 - 0.0 - - 10 - - - -
24/10:30am 18.5 NNE 5 7 1019.7 - 0.0 - - 10 - - - -
24/10:00am 17.0 NNE 3 6 1020.0 - 0.0 - - 10 - - - -
24/09:30am 16.7 NE 5 7 1019.9 - 0.0 - - 10 - - - -
24/09:00am 15.3 NE 4 6 1019.8 - 0.0 - - 10 - - - -
24/08:30am 14.5 NE 3 5 1019.7 - 0.0 - - 10 - - - -
24/08:00am 14.2 CALM 0 3 1019.5 - 0.0 - - 10 - - - -
24/07:30am 14.1 NE 1 5 1019.0 - 0.0 - - 10 - - - -
24/07:00am 14.0 CALM 0 0 1018.7 - 0.0 - - 10 - - - -
24/06:30am 14.0 CALM 0 0 1018.6 - 0.0 - - 10 - - - -
24/06:00am 14.0 CALM 0 0 1018.7 - 0.0 - - 10 - - - -
24/05:30am 14.2 CALM 0 0 1018.7 - 0.0 - - 10 - - - -
24/05:00am 14.6 CALM 0 0 1018.7 - 0.0 - - 10 - - - -
24/04:30am 14.9 CALM 0 0 1018.6 - 0.0 - - 10 - - - -
24/04:00am 15.4 CALM 0 3 1018.8 - 0.0 - - 10 - - - -
24/03:30am 15.2 CALM 0 3 1019.1 - 0.0 - - 10 - - - -
24/03:00am 15.9 CALM 0 0 1019.7 - 0.0 - - 10 - - - -
24/02:30am 16.6 E 1 4 1019.7 - 0.0 - - 10 - - - -
24/02:00am 16.7 ESE 4 6 1019.7 - 0.0 - - 10 - - - -
24/01:30am 16.8 ESE 2 7 1020.0 - 0.0 - - 10 - - - -
24/01:00am 17.0 ESE 4 7 1019.9 - 0.0 - - 10 - - - -
24/12:30am 17.2 ESE 4 8 1020.0 - 0.0 - - 10 - - - -
24/12:00am 17.4 ESE 7 11 1019.8 - 0.0 - - 10 - - - -
 
Date/Time
EDT
Temp
°C
Wind Pressure Rain since
9am
mm
Weather Cloud Vis
km
Sea
Height
m
Swell
Dir  Spd
kts
Gust
kts
hPa Trend Height
m
Period
s
Dir
23/11:30pm 17.7 ESE 7 14 1020.2 - 0.0 - - 10 - - - -
23/11:00pm 18.0 SE 7 14 1020.0 - 0.0 - - 10 - - - -
23/10:30pm 18.4 SE 7 13 1020.5 - 0.0 - - 10 - - - -
23/10:00pm 18.7 SE 7 13 1020.3 - 0.0 - - 10 - - - -
23/09:30pm 19.0 SE 7 14 1019.8 - 0.0 - - 10 - - - -
23/09:00pm 19.4 SE 8 16 1019.5 - 0.0 - - 10 - - - -
23/08:30pm 19.8 SE 8 17 1019.1 - 0.0 - - 10 - - - -
23/08:00pm 20.3 SE 7 13 1018.5 - 0.0 - - 10 - - - -
23/07:30pm 20.9 SE 7 18 1018.3 - 0.0 - - 10 - - - -
23/07:00pm 21.7 SE 10 17 1018.3 - 0.0 - - 10 - - - -
23/06:30pm 23.0 SE 8 17 1018.2 - 0.0 - - 10 - - - -

Other Formats:

Comma delimited format used in spreadsheet applications
http://www.bom.gov.au/fwo/IDV60701/IDV60701.95936.axf

JavaScript Object Notation format (JSON) in row-major order
http://www.bom.gov.au/fwo/IDV60701/IDV60701.95936.json